createdAt,value
2019-04-20T00:00:31.595Z,49.64
2019-04-20T00:01:31.962Z,49.84
2019-04-20T00:02:27.596Z,50.04
2019-04-20T00:03:32.229Z,48.72
2019-04-20T00:04:33.483Z,49.13
2019-04-20T00:05:27.586Z,48.83
2019-04-20T00:06:27.089Z,49.13
2019-04-20T00:07:30.946Z,49.33
2019-04-20T00:08:31.096Z,49.03
2019-04-20T00:09:31.388Z,49.74
2019-04-20T00:10:30.148Z,49.56
2019-04-20T00:11:35.393Z,49.46
2019-04-20T00:12:36.863Z,49.13
2019-04-20T00:13:37.882Z,49.64
2019-04-20T00:14:30.990Z,48.93
2019-04-20T00:15:28.227Z,49.23
2019-04-20T00:16:27.246Z,49.13
2019-04-20T00:17:26.730Z,48.93
2019-04-20T00:18:34.678Z,50.04
2019-04-20T00:19:35.456Z,49.54
2019-04-20T00:20:32.050Z,49.74
2019-04-20T00:21:27.389Z,50.37
2019-04-20T00:22:34.393Z,49.16
2019-04-20T00:23:34.810Z,49.76
2019-04-20T00:24:31.097Z,50.81
2019-04-20T00:25:41.724Z,50.20
2019-04-20T00:26:57.821Z,50.40
2019-04-20T00:27:49.568Z,50.17
2019-04-20T00:28:46.060Z,50.40
2019-04-20T00:29:46.361Z,49.99
2019-04-20T00:30:46.792Z,50.29
2019-04-20T00:31:44.608Z,50.20
2019-04-20T00:32:41.325Z,50.29
2019-04-20T00:33:43.139Z,50.29
2019-04-20T00:34:33.142Z,50.29
2019-04-20T00:35:27.219Z,50.20
2019-04-20T00:36:27.275Z,50.42
2019-04-20T00:37:26.157Z,50.52
2019-04-20T00:38:33.146Z,50.50
2019-04-20T00:39:27.895Z,50.52
2019-04-20T00:40:26.114Z,50.40
2019-04-20T00:41:26.102Z,50.40
2019-04-20T00:42:33.976Z,50.09
2019-04-20T00:43:32.296Z,50.70
2019-04-20T00:44:31.710Z,50.40
2019-04-20T00:45:31.648Z,50.20
2019-04-20T00:46:34.074Z,50.50
2019-04-20T00:47:39.522Z,50.40
2019-04-20T00:48:37.536Z,50.50
2019-04-20T00:49:38.896Z,50.42
2019-04-20T00:50:41.764Z,50.12
2019-04-20T00:51:45.576Z,50.12
2019-04-20T00:52:39.988Z,50.12
2019-04-20T00:53:34.273Z,50.22
2019-04-20T00:54:28.313Z,50.12
2019-04-20T00:55:27.107Z,50.32
2019-04-20T00:56:26.513Z,50.32
2019-04-20T00:57:37.970Z,50.12
2019-04-20T00:58:33.401Z,50.22
2019-04-20T00:59:43.031Z,50.42
2019-04-20T01:00:41.089Z,50.32
2019-04-20T01:01:49.006Z,50.52
2019-04-20T01:02:37.157Z,50.52
2019-04-20T01:03:43.159Z,50.62
2019-04-20T01:04:49.341Z,50.62
2019-04-20T01:05:46.608Z,50.85
2019-04-20T01:06:42.359Z,50.83
2019-04-20T01:07:37.435Z,50.32
2019-04-20T01:08:27.483Z,51.26
2019-04-20T01:09:26.481Z,50.85
2019-04-20T01:10:29.898Z,50.85
2019-04-20T01:11:31.782Z,50.75
2019-04-20T01:12:30.347Z,50.75
2019-04-20T01:13:28.353Z,51.06
2019-04-20T01:14:30.856Z,50.95
2019-04-20T01:15:38.803Z,50.93
2019-04-20T01:16:35.436Z,50.75
2019-04-20T01:17:26.677Z,51.06
2019-04-20T01:18:25.652Z,50.85
2019-04-20T01:19:25.641Z,50.75
2019-04-20T01:20:26.414Z,50.65
2019-04-20T01:21:28.838Z,50.85
2019-04-20T01:22:28.683Z,50.85
2019-04-20T01:23:34.644Z,50.85
2019-04-20T01:24:32.841Z,50.45
2019-04-20T01:25:32.282Z,50.75
2019-04-20T01:26:27.746Z,50.55
2019-04-20T01:27:39.888Z,50.55
2019-04-20T01:28:44.053Z,50.75
2019-04-20T01:29:38.409Z,50.47
2019-04-20T01:30:35.316Z,52.10
2019-04-20T01:31:35.464Z,51.92
2019-04-20T01:32:35.972Z,51.61
2019-04-20T01:33:40.417Z,51.61
2019-04-20T01:34:38.932Z,51.81
2019-04-20T01:35:44.153Z,51.72
2019-04-20T01:36:46.136Z,51.92
2019-04-20T01:37:39.437Z,51.72
2019-04-20T01:38:42.794Z,51.72
2019-04-20T01:39:35.316Z,53.04
2019-04-20T01:40:27.471Z,53.55
2019-04-20T01:41:26.503Z,53.98
2019-04-20T01:42:25.572Z,52.55
2019-04-20T01:43:25.385Z,54.51
2019-04-20T01:44:31.617Z,53.78
2019-04-20T01:45:31.423Z,53.90
2019-04-20T01:46:28.326Z,53.98
2019-04-20T01:47:34.503Z,54.51
2019-04-20T01:48:30.770Z,55.02
2019-04-20T01:49:31.538Z,54.41
2019-04-20T01:50:30.051Z,54.51
2019-04-20T01:51:30.477Z,53.80
2019-04-20T01:52:35.989Z,53.50
2019-04-20T01:53:44.099Z,52.35
2019-04-20T01:54:48.556Z,52.55
2019-04-20T01:55:42.384Z,53.16
2019-04-20T01:56:37.290Z,52.76
2019-04-20T01:57:33.047Z,52.66
2019-04-20T01:58:47.462Z,53.78
2019-04-20T01:59:34.494Z,53.47
2019-04-20T02:00:32.747Z,52.48
2019-04-20T02:01:31.146Z,53.39
2019-04-20T02:02:27.745Z,54.00
2019-04-20T02:03:31.158Z,54.00
2019-04-20T02:04:32.287Z,53.70
2019-04-20T02:05:31.856Z,54.51
2019-04-20T02:06:28.266Z,55.56
2019-04-20T02:07:31.590Z,57.50
2019-04-20T02:08:29.203Z,57.12
2019-04-20T02:09:28.024Z,55.91
2019-04-20T02:10:31.880Z,56.84
2019-04-20T02:11:31.350Z,59.62
2019-04-20T02:12:30.463Z,60.74
2019-04-20T02:13:33.007Z,57.60
2019-04-20T02:14:34.190Z,56.58
2019-04-20T02:15:32.656Z,57.88
2019-04-20T02:16:34.917Z,55.43
2019-04-20T02:17:36.935Z,55.30
2019-04-20T02:18:36.448Z,55.00
2019-04-20T02:19:37.764Z,54.77
2019-04-20T02:20:43.914Z,55.28
2019-04-20T02:21:39.746Z,54.44
2019-04-20T02:22:45.249Z,53.83
2019-04-20T02:23:35.777Z,53.72
2019-04-20T02:24:25.916Z,54.13
2019-04-20T02:25:25.022Z,53.83
2019-04-20T02:26:25.984Z,53.42
2019-04-20T02:27:29.990Z,52.48
2019-04-20T02:28:55.370Z,52.17
2019-04-20T02:29:52.069Z,53.29
2019-04-20T02:32:11.736Z,51.84
2019-04-20T02:33:07.167Z,52.15
2019-04-20T02:33:58.010Z,52.25
2019-04-20T02:34:59.282Z,52.45
2019-04-20T02:36:02.833Z,52.66
2019-04-20T02:37:09.538Z,52.15
2019-04-20T02:40:00.882Z,51.84
2019-04-20T02:40:57.304Z,51.53
2019-04-20T02:41:57.803Z,51.94
2019-04-20T02:44:05.994Z,51.72
2019-04-20T02:45:17.373Z,52.76
2019-04-20T02:45:50.811Z,51.81
2019-04-20T02:47:08.150Z,51.94
2019-04-20T02:48:11.859Z,51.64
2019-04-20T02:49:00.603Z,52.04
2019-04-20T02:50:14.663Z,51.33
2019-04-20T02:52:12.624Z,51.53
2019-04-20T02:54:17.039Z,52.04
2019-04-20T02:55:02.245Z,52.04
2019-04-20T02:56:04.854Z,51.97
2019-04-20T02:58:05.205Z,52.37
2019-04-20T02:59:15.215Z,54.31
2019-04-20T03:00:44.696Z,55.38
2019-04-20T03:01:46.661Z,56.20
2019-04-20T03:02:41.208Z,54.18
2019-04-20T03:03:34.485Z,53.96
2019-04-20T03:04:35.106Z,53.96
2019-04-20T03:05:36.748Z,54.36
2019-04-20T03:06:37.536Z,54.46
2019-04-20T03:07:41.461Z,54.16
2019-04-20T03:08:47.891Z,54.05
2019-04-20T03:09:45.907Z,53.96
2019-04-20T03:10:58.564Z,54.67
2019-04-20T03:11:56.753Z,54.05
2019-04-20T03:12:44.595Z,55.10
2019-04-20T03:13:47.472Z,55.30
2019-04-20T03:14:40.076Z,54.49
2019-04-20T03:15:42.104Z,55.61
2019-04-20T03:16:45.505Z,55.23
2019-04-20T03:17:49.346Z,55.13
2019-04-20T03:18:44.363Z,55.43
2019-04-20T03:19:40.841Z,55.63
2019-04-20T03:20:46.639Z,55.23
2019-04-20T03:21:52.883Z,57.27
2019-04-20T03:23:05.997Z,57.78
2019-04-20T03:23:50.019Z,58.73
2019-04-20T03:24:51.369Z,57.91
2019-04-20T03:25:49.522Z,59.67
2019-04-20T03:26:40.185Z,60.01
2019-04-20T03:27:41.426Z,61.13
2019-04-20T03:28:46.559Z,60.72
2019-04-20T03:29:46.976Z,61.36
2019-04-20T03:33:02.398Z,64.06
2019-04-20T03:34:15.668Z,63.03
2019-04-20T03:35:52.782Z,63.68
2019-04-20T03:36:57.498Z,63.88
2019-04-20T03:37:49.448Z,61.01
2019-04-20T03:38:45.433Z,61.32
2019-04-20T03:39:42.943Z,59.55
2019-04-20T03:40:41.315Z,61.19
2019-04-20T03:41:33.278Z,58.40
2019-04-20T03:42:25.024Z,57.89
2019-04-20T03:43:24.514Z,60.35
2019-04-20T03:44:28.977Z,57.68
2019-04-20T03:45:27.081Z,59.30
2019-04-20T03:46:31.067Z,57.89
2019-04-20T03:47:35.912Z,57.99
2019-04-20T03:48:41.602Z,57.38
2019-04-20T03:49:48.343Z,57.86
2019-04-20T03:50:46.346Z,58.98
2019-04-20T03:51:51.867Z,56.53
2019-04-20T03:52:43.058Z,57.53
2019-04-20T03:53:43.378Z,59.37
2019-04-20T03:54:39.435Z,57.76
2019-04-20T03:55:40.816Z,57.04
2019-04-20T03:56:45.986Z,60.62
2019-04-20T03:57:48.178Z,57.76
2019-04-20T03:58:44.086Z,60.62
2019-04-20T03:59:41.798Z,57.76
2019-04-20T04:00:41.408Z,61.47
2019-04-20T04:02:12.095Z,60.93
2019-04-20T04:03:00.365Z,61.88
2019-04-20T04:04:43.828Z,62.21
2019-04-20T04:05:42.299Z,64.26
2019-04-20T04:06:34.056Z,61.83
2019-04-20T04:07:32.293Z,64.53
2019-04-20T04:08:32.606Z,64.22
2019-04-20T04:09:35.792Z,64.53
2019-04-20T04:10:33.661Z,66.19
2019-04-20T04:11:41.430Z,65.58
2019-04-20T04:12:31.600Z,66.43
2019-04-20T04:13:25.007Z,66.63
2019-04-20T04:14:24.011Z,66.94
2019-04-20T04:15:23.639Z,68.10
2019-04-20T04:16:32.814Z,67.38
2019-04-20T04:17:28.828Z,68.62
2019-04-20T04:18:31.860Z,68.82
2019-04-20T04:19:30.030Z,68.54
2019-04-20T04:20:33.254Z,68.44
2019-04-20T04:21:40.948Z,68.85
2019-04-20T04:22:42.312Z,68.88
2019-04-20T04:23:40.334Z,69.09
2019-04-20T04:24:35.341Z,70.84
2019-04-20T04:25:34.530Z,69.19
2019-04-20T04:26:38.950Z,69.43
2019-04-20T04:27:40.644Z,70.94
2019-04-20T04:28:42.292Z,70.87
2019-04-20T04:29:41.916Z,71.17
2019-04-20T04:30:36.539Z,70.66
2019-04-20T04:31:53.526Z,70.87
2019-04-20T04:33:11.866Z,71.38
2019-04-20T04:34:43.237Z,70.90
2019-04-20T04:35:33.513Z,72.03
2019-04-20T04:36:40.599Z,71.51
2019-04-20T04:37:47.308Z,72.34
2019-04-20T04:38:51.080Z,73.16
2019-04-20T04:39:47.485Z,72.92
2019-04-20T04:40:49.499Z,70.39
2019-04-20T04:41:39.773Z,70.08
2019-04-20T04:42:46.574Z,72.03
2019-04-20T04:43:48.415Z,73.57
2019-04-20T04:44:39.169Z,70.90
2019-04-20T04:45:27.233Z,70.08
2019-04-20T04:46:24.882Z,70.79
2019-04-20T04:47:23.977Z,71.21
2019-04-20T04:48:30.999Z,72.96
2019-04-20T04:49:30.853Z,73.06
2019-04-20T04:50:27.874Z,70.70
2019-04-20T04:51:29.645Z,71.11
2019-04-20T04:52:33.091Z,72.55
2019-04-20T04:53:36.732Z,70.90
2019-04-20T04:54:34.232Z,71.11
2019-04-20T04:55:35.281Z,71.93
2019-04-20T04:56:26.767Z,71.17
2019-04-20T04:57:24.266Z,71.93
2019-04-20T04:58:23.670Z,71.62
2019-04-20T04:59:23.524Z,72.82
2019-04-20T05:00:26.590Z,70.66
2019-04-20T05:01:28.576Z,72.00
2019-04-20T05:02:29.973Z,72.55
2019-04-20T05:03:40.143Z,71.08
2019-04-20T05:04:48.551Z,70.87
2019-04-20T05:05:47.289Z,71.17
2019-04-20T05:06:37.531Z,70.46
2019-04-20T05:07:38.380Z,71.25
2019-04-20T05:08:32.626Z,70.66
2019-04-20T05:09:24.038Z,71.25
2019-04-20T05:10:23.053Z,70.84
2019-04-20T05:11:23.809Z,69.60
2019-04-20T05:12:26.728Z,70.42
2019-04-20T05:13:27.657Z,68.96
2019-04-20T05:14:36.255Z,70.60
2019-04-20T05:15:37.354Z,70.56
2019-04-20T05:16:43.229Z,71.18
2019-04-20T05:17:43.484Z,70.26
2019-04-20T05:18:46.811Z,71.80
2019-04-20T05:19:49.780Z,71.04
2019-04-20T05:20:47.611Z,71.42
2019-04-20T05:21:52.487Z,70.26
2019-04-20T05:22:43.965Z,68.73
2019-04-20T05:23:34.947Z,68.33
2019-04-20T05:24:38.213Z,65.75
2019-04-20T05:25:44.814Z,63.53
2019-04-20T05:26:45.979Z,63.67
2019-04-20T05:27:46.482Z,58.83
2019-04-20T05:28:33.368Z,57.15
2019-04-20T05:29:30.039Z,56.39
2019-04-20T05:30:24.555Z,51.50
2019-04-20T05:31:30.909Z,52.15
2019-04-20T05:32:35.822Z,52.44
2019-04-20T05:33:34.398Z,50.49
2019-04-20T05:34:45.404Z,49.15
2019-04-20T05:35:44.191Z,48.22
2019-04-20T05:36:45.045Z,49.51
2019-04-20T05:37:48.671Z,48.68
2019-04-20T05:38:47.023Z,47.34
2019-04-20T05:39:45.803Z,45.93
2019-04-20T05:40:45.965Z,44.67
2019-04-20T05:41:41.903Z,44.57
2019-04-20T05:42:42.909Z,44.15
2019-04-20T05:43:41.195Z,46.55
2019-04-20T05:44:48.543Z,43.80
2019-04-20T05:45:38.012Z,44.21
2019-04-20T05:46:41.006Z,44.11
2019-04-20T05:47:46.735Z,42.78
2019-04-20T05:48:45.737Z,44.09
2019-04-20T05:49:40.359Z,42.18
2019-04-20T05:50:43.530Z,41.65
2019-04-20T05:51:45.107Z,44.89
2019-04-20T05:52:50.823Z,43.68
2019-04-20T05:53:46.011Z,42.47
2019-04-20T05:54:45.633Z,43.88
2019-04-20T05:55:43.222Z,43.38
2019-04-20T05:57:43.994Z,42.76
2019-04-20T05:58:45.336Z,42.46
2019-04-20T05:59:51.598Z,43.64
2019-04-20T06:00:49.730Z,43.44
2019-04-20T06:01:47.561Z,43.24
2019-04-20T06:02:46.550Z,43.54
2019-04-20T06:03:44.101Z,42.84
2019-04-20T06:04:59.647Z,42.61
2019-04-20T06:05:52.591Z,42.64
2019-04-20T06:06:44.370Z,41.59
2019-04-20T06:07:42.464Z,40.19
2019-04-20T06:08:55.868Z,41.59
2019-04-20T06:09:48.150Z,42.30
2019-04-20T06:10:45.637Z,41.77
2019-04-20T06:12:00.789Z,41.65
2019-04-20T06:12:40.261Z,41.45
2019-04-20T06:13:40.746Z,40.45
2019-04-20T06:14:41.591Z,37.60
2019-04-20T06:15:44.644Z,40.21
2019-04-20T06:16:50.083Z,39.51
2019-04-20T06:17:44.456Z,38.81
2019-04-20T06:18:39.027Z,37.07
2019-04-20T06:19:39.598Z,36.66
2019-04-20T06:21:09.460Z,36.43
2019-04-20T06:21:43.880Z,36.51
2019-04-20T06:22:40.750Z,34.59
2019-04-20T06:23:53.026Z,34.68
2019-04-20T06:25:12.733Z,34.46
2019-04-20T06:26:01.473Z,34.75
2019-04-20T06:26:53.561Z,34.84
2019-04-20T06:27:45.006Z,34.43
2019-04-20T06:28:41.536Z,34.41
2019-04-20T06:29:43.925Z,32.98
2019-04-20T06:30:34.858Z,33.48
2019-04-20T06:31:57.667Z,35.10
2019-04-20T06:32:48.480Z,35.47
2019-04-20T06:34:04.955Z,33.47
2019-04-20T06:34:58.496Z,33.05
2019-04-20T06:36:06.021Z,31.96
2019-04-20T06:36:47.138Z,32.04
2019-04-20T06:37:46.666Z,32.95
2019-04-20T06:39:02.622Z,32.15
2019-04-20T06:39:46.543Z,34.13
2019-04-20T06:40:58.019Z,32.93
2019-04-20T06:42:01.952Z,30.65
2019-04-20T06:42:42.171Z,32.75
2019-04-20T06:43:48.730Z,34.05
2019-04-20T06:44:46.343Z,32.27
2019-04-20T06:45:51.280Z,34.89
2019-04-20T06:46:52.443Z,32.50
2019-04-20T06:47:50.116Z,31.49
2019-04-20T06:48:46.090Z,32.63
2019-04-20T06:49:46.852Z,33.22
2019-04-20T06:50:38.470Z,32.82
2019-04-20T06:51:47.405Z,32.82
2019-04-20T06:52:36.793Z,34.25
2019-04-20T06:53:45.218Z,32.76
2019-04-20T06:54:44.861Z,33.03
2019-04-20T06:55:48.651Z,32.53
2019-04-20T06:56:41.757Z,33.88
2019-04-20T06:57:48.603Z,33.48
2019-04-20T06:58:50.934Z,33.43
2019-04-20T06:59:48.916Z,32.82
2019-04-20T07:00:44.496Z,32.82
2019-04-20T07:01:48.822Z,32.62
2019-04-20T07:02:44.637Z,33.63
2019-04-20T07:04:10.749Z,33.16
2019-04-20T07:04:52.098Z,33.35
2019-04-20T07:05:49.055Z,32.83
2019-04-20T07:06:51.882Z,33.01
2019-04-20T07:07:48.013Z,33.63
2019-04-20T07:09:55.671Z,32.71
2019-04-20T07:10:44.578Z,33.03
2019-04-20T07:11:44.264Z,31.60
2019-04-20T07:12:37.950Z,32.18
2019-04-20T07:13:36.046Z,33.78
2019-04-20T07:14:37.955Z,32.50
2019-04-20T07:15:36.392Z,33.65
2019-04-20T07:16:49.675Z,32.83
2019-04-20T07:18:42.636Z,32.85
2019-04-20T07:19:40.139Z,33.35
2019-04-20T07:20:54.363Z,34.31
2019-04-20T07:21:52.550Z,31.99
2019-04-20T07:22:46.156Z,31.69
2019-04-20T07:23:47.529Z,31.40
2019-04-20T07:24:48.751Z,31.29
2019-04-20T07:25:43.381Z,31.16
2019-04-20T07:26:46.340Z,30.07
2019-04-20T07:27:43.242Z,30.55
2019-04-20T07:28:48.509Z,30.04
2019-04-20T07:29:46.310Z,31.34
2019-04-20T07:30:45.179Z,29.13
2019-04-20T07:31:40.249Z,31.20
2019-04-20T07:32:48.458Z,30.24
2019-04-20T07:33:49.520Z,31.45
2019-04-20T07:34:40.191Z,31.06
2019-04-20T07:35:41.755Z,30.49
2019-04-20T07:36:45.796Z,31.27
2019-04-20T07:38:47.647Z,31.76
2019-04-20T07:39:44.519Z,30.76
2019-04-20T07:40:38.457Z,31.62
2019-04-20T07:41:52.384Z,33.18
2019-04-20T07:42:47.962Z,29.35
2019-04-20T07:43:54.073Z,31.43
2019-04-20T07:44:48.855Z,29.81
2019-04-20T07:45:37.608Z,30.73
2019-04-20T07:46:54.765Z,30.19
2019-04-20T07:47:45.955Z,29.61
2019-04-20T07:48:42.578Z,31.70
2019-04-20T07:49:41.605Z,32.01
2019-04-20T07:50:37.287Z,32.38
2019-04-20T07:51:29.645Z,28.39
2019-04-20T07:52:34.025Z,29.17
2019-04-20T07:53:36.271Z,28.96
2019-04-20T07:54:50.683Z,30.97
2019-04-20T07:56:02.427Z,30.68
2019-04-20T07:56:42.409Z,28.88
2019-04-20T07:57:40.455Z,28.80
2019-04-20T07:58:30.770Z,29.50
2019-04-20T07:59:34.016Z,30.45
2019-04-20T08:00:51.440Z,32.12
2019-04-20T08:01:54.283Z,33.18
2019-04-20T08:02:51.418Z,31.65
2019-04-20T08:03:44.190Z,30.15
2019-04-20T08:04:36.732Z,31.54
2019-04-20T08:05:33.572Z,30.68
2019-04-20T08:06:32.148Z,29.69
2019-04-20T08:07:36.073Z,29.58
2019-04-20T08:08:40.312Z,30.37
2019-04-20T08:09:34.111Z,28.90
2019-04-20T08:10:39.505Z,28.92
2019-04-20T08:11:50.746Z,30.71
2019-04-20T08:12:41.691Z,30.98
2019-04-20T08:13:45.781Z,30.55
2019-04-20T08:14:48.053Z,28.66
2019-04-20T08:16:49.079Z,29.06
2019-04-20T08:18:44.082Z,29.04
2019-04-20T08:19:41.871Z,30.32
2019-04-20T08:20:42.869Z,30.39
2019-04-20T08:21:40.786Z,30.62
2019-04-20T08:22:42.072Z,31.49
2019-04-20T08:23:44.560Z,29.33
2019-04-20T08:24:37.167Z,29.91
2019-04-20T08:25:32.787Z,31.60
2019-04-20T08:26:29.901Z,30.70
2019-04-20T08:27:23.371Z,31.21
2019-04-20T08:28:31.580Z,32.64
2019-04-20T08:29:33.941Z,31.91
2019-04-20T08:30:38.712Z,30.19
2019-04-20T08:31:35.964Z,30.29
2019-04-20T08:32:37.815Z,32.46
2019-04-20T08:33:45.078Z,30.77
2019-04-20T08:34:47.515Z,32.06
2019-04-20T08:35:47.420Z,29.95
2019-04-20T08:36:47.773Z,29.34
2019-04-20T08:37:59.639Z,29.57
2019-04-20T08:39:16.565Z,30.77
2019-04-20T08:40:43.932Z,29.16
2019-04-20T08:41:48.379Z,29.67
2019-04-20T08:42:52.624Z,32.75
2019-04-20T08:43:47.153Z,29.82
2019-04-20T08:44:55.421Z,29.16
2019-04-20T08:45:49.248Z,30.35
2019-04-20T08:46:54.772Z,31.14
2019-04-20T08:47:49.985Z,29.63
2019-04-20T08:48:40.646Z,29.23
2019-04-20T08:49:47.451Z,29.03
2019-04-20T08:50:41.405Z,29.78
2019-04-20T08:51:50.056Z,28.66
2019-04-20T08:53:44.679Z,28.23
2019-04-20T08:54:34.491Z,29.11
2019-04-20T08:55:38.935Z,27.42
2019-04-20T08:56:31.695Z,29.03
2019-04-20T08:57:22.550Z,28.42
2019-04-20T08:58:20.616Z,26.84
2019-04-20T08:59:21.098Z,28.28
2019-04-20T09:00:29.407Z,29.21
2019-04-20T09:01:27.876Z,30.30
2019-04-20T09:02:22.067Z,29.19
2019-04-20T09:03:28.503Z,27.09
2019-04-20T09:04:33.835Z,28.48
2019-04-20T09:05:36.113Z,28.67
2019-04-20T09:06:36.499Z,29.07
2019-04-20T09:07:25.154Z,28.85
2019-04-20T09:08:28.025Z,29.13
2019-04-20T09:09:56.435Z,26.34
2019-04-20T09:10:56.515Z,29.11
2019-04-20T09:11:41.536Z,28.91
2019-04-20T09:12:40.612Z,26.64
2019-04-20T09:13:33.144Z,26.13
2019-04-20T09:14:23.434Z,25.54
2019-04-20T09:15:21.095Z,28.08
2019-04-20T09:16:26.962Z,25.50
2019-04-20T09:17:27.311Z,26.90
2019-04-20T09:18:29.377Z,26.41
2019-04-20T09:19:32.249Z,26.32
2019-04-20T09:20:31.869Z,28.11
2019-04-20T09:21:28.785Z,26.55
2019-04-20T09:22:34.267Z,27.04
2019-04-20T09:23:38.071Z,29.50
2019-04-20T09:24:47.515Z,28.20
2019-04-20T09:26:37.054Z,26.20
2019-04-20T09:27:32.594Z,25.42
2019-04-20T09:28:28.556Z,25.72
2019-04-20T09:29:33.350Z,25.51
2019-04-20T09:30:33.353Z,24.82
2019-04-20T09:31:36.936Z,25.32
2019-04-20T09:32:35.991Z,25.32
2019-04-20T09:33:43.955Z,24.07
2019-04-20T09:34:42.646Z,24.85
2019-04-20T09:35:39.052Z,26.54
2019-04-20T09:36:33.583Z,26.51
2019-04-20T09:37:43.423Z,27.13
2019-04-20T09:38:36.808Z,27.31
2019-04-20T09:39:31.561Z,27.22
2019-04-20T09:40:50.814Z,27.23
2019-04-20T09:41:45.263Z,26.06
2019-04-20T09:42:21.200Z,25.76
2019-04-20T09:43:20.239Z,27.52
2019-04-20T09:44:25.407Z,26.51
2019-04-20T09:45:28.756Z,26.96
2019-04-20T09:46:22.273Z,28.17
2019-04-20T09:47:28.344Z,27.56
2019-04-20T09:48:32.024Z,27.56
2019-04-20T09:49:37.774Z,28.33
2019-04-20T09:50:38.835Z,25.45
2019-04-20T09:51:40.162Z,25.54
2019-04-20T09:52:33.443Z,26.23
2019-04-20T09:53:33.478Z,25.23
2019-04-20T09:54:37.032Z,25.32
2019-04-20T09:55:31.292Z,26.99
2019-04-20T09:56:38.801Z,26.40
2019-04-20T09:57:38.069Z,27.27
2019-04-20T09:58:31.105Z,26.88
2019-04-20T09:59:38.225Z,26.41
2019-04-20T10:00:38.317Z,24.35
2019-04-20T10:01:31.122Z,24.65
2019-04-20T10:02:24.866Z,24.75
2019-04-20T10:03:21.065Z,26.51
2019-04-20T10:04:20.035Z,24.58
2019-04-20T10:05:20.029Z,27.18
2019-04-20T10:06:24.745Z,26.17
2019-04-20T10:07:24.261Z,25.97
2019-04-20T10:08:21.838Z,24.67
2019-04-20T10:09:26.782Z,25.05
2019-04-20T10:10:29.669Z,26.04
2019-04-20T10:11:21.424Z,24.06
2019-04-20T10:12:19.933Z,25.04
2019-04-20T10:13:19.939Z,26.06
2019-04-20T10:14:20.107Z,24.88
2019-04-20T10:15:23.086Z,25.93
2019-04-20T10:16:21.868Z,25.90
2019-04-20T10:17:20.264Z,26.48
2019-04-20T10:18:19.882Z,22.83
2019-04-20T10:19:25.174Z,24.26
2019-04-20T10:20:27.685Z,24.48
2019-04-20T10:21:20.979Z,25.95
2019-04-20T10:22:20.432Z,23.68
2019-04-20T10:23:20.746Z,23.69
2019-04-20T10:24:20.909Z,23.72
2019-04-20T10:25:20.540Z,22.03
2019-04-20T10:26:20.613Z,22.02
2019-04-20T10:27:20.953Z,23.41
2019-04-20T10:28:19.811Z,24.58
2019-04-20T10:29:19.786Z,24.97
2019-04-20T10:30:20.729Z,24.48
2019-04-20T10:31:20.313Z,25.15
2019-04-20T10:32:19.814Z,24.50
2019-04-20T10:33:19.765Z,24.61
2019-04-20T10:34:23.663Z,24.22
2019-04-20T10:35:19.736Z,23.81
2019-04-20T10:36:19.732Z,25.77
2019-04-20T10:37:19.837Z,23.98
2019-04-20T10:38:19.730Z,25.20
2019-04-20T10:39:20.391Z,25.51
2019-04-20T10:40:32.648Z,24.10
2019-04-20T10:41:33.939Z,24.60
2019-04-20T10:42:20.709Z,23.92
2019-04-20T10:43:19.850Z,24.32
2019-04-20T10:44:20.883Z,23.02
2019-04-20T10:45:19.645Z,22.71
2019-04-20T10:46:20.731Z,23.99
2019-04-20T10:47:20.833Z,26.15
2019-04-20T10:48:19.646Z,23.10
2019-04-20T10:49:19.626Z,23.11
2019-04-20T10:50:20.846Z,24.29
2019-04-20T10:51:19.803Z,21.81
2019-04-20T10:52:20.020Z,21.91
2019-04-20T10:53:19.688Z,22.19
2019-04-20T10:54:20.449Z,22.30
2019-04-20T10:55:20.758Z,22.02
2019-04-20T10:56:19.549Z,23.91
2019-04-20T10:57:19.602Z,23.11
2019-04-20T10:58:19.759Z,21.53
2019-04-20T10:59:19.518Z,22.92
2019-04-20T11:00:19.744Z,22.03
2019-04-20T11:01:19.958Z,22.24
2019-04-20T11:02:19.592Z,24.90
2019-04-20T11:03:19.760Z,21.93
2019-04-20T11:04:20.803Z,22.03
2019-04-20T11:05:20.409Z,22.52
2019-04-20T11:06:20.579Z,21.42
2019-04-20T11:07:20.683Z,22.31
2019-04-20T11:08:20.384Z,22.30
2019-04-20T11:09:20.653Z,24.08
2019-04-20T11:10:25.371Z,22.70
2019-04-20T11:11:25.266Z,22.51
2019-04-20T11:12:20.437Z,23.43
2019-04-20T11:13:19.447Z,23.22
2019-04-20T11:14:26.356Z,22.14
2019-04-20T11:15:20.966Z,22.45
2019-04-20T11:16:20.214Z,22.83
2019-04-20T11:17:20.448Z,22.63
2019-04-20T11:18:19.672Z,22.06
2019-04-20T11:19:19.330Z,23.38
2019-04-20T11:20:19.316Z,23.07
2019-04-20T11:21:19.656Z,23.75
2019-04-20T11:22:20.044Z,23.46
2019-04-20T11:23:20.342Z,23.44
2019-04-20T11:24:20.476Z,21.85
2019-04-20T11:25:19.946Z,22.24
2019-04-20T11:26:20.250Z,22.52
2019-04-20T11:27:20.375Z,22.03
2019-04-20T11:28:19.846Z,22.45
2019-04-20T11:29:20.093Z,23.47
2019-04-20T11:30:20.381Z,23.50
2019-04-20T11:31:20.035Z,24.22
2019-04-20T11:32:20.213Z,24.42
2019-04-20T11:33:20.336Z,24.72
2019-04-20T11:34:24.900Z,24.83
2019-04-20T11:35:28.070Z,25.04
2019-04-20T11:36:21.241Z,25.27
2019-04-20T11:37:19.407Z,26.18
2019-04-20T11:38:19.711Z,26.78
2019-04-20T11:39:19.158Z,26.28
2019-04-20T11:40:19.206Z,25.98
2019-04-20T11:41:25.173Z,26.78
2019-04-20T11:42:21.620Z,25.99
2019-04-20T11:43:19.804Z,27.60
2019-04-20T11:44:20.035Z,26.81
2019-04-20T11:45:20.456Z,26.40
2019-04-20T11:46:19.068Z,27.60
2019-04-20T11:47:19.062Z,26.70
2019-04-20T11:48:19.176Z,28.50
2019-04-20T11:49:19.432Z,27.30
2019-04-20T11:50:19.853Z,26.22
2019-04-20T11:51:19.267Z,25.42
2019-04-20T11:52:21.432Z,27.32
2019-04-20T11:53:19.360Z,28.50
2019-04-20T11:54:18.972Z,27.30
2019-04-20T11:55:20.141Z,27.11
2019-04-20T11:56:23.983Z,26.51
2019-04-20T11:57:19.943Z,27.32
2019-04-20T11:58:19.708Z,26.82
2019-04-20T11:59:18.993Z,26.83
2019-04-20T12:00:19.182Z,26.23
2019-04-20T12:01:22.048Z,27.03
2019-04-20T12:02:27.908Z,26.43
2019-04-20T12:03:29.254Z,26.83
2019-04-20T12:04:32.772Z,28.23
2019-04-20T12:05:30.243Z,27.23
2019-04-20T12:06:21.081Z,26.83
2019-04-20T12:07:19.239Z,27.13
2019-04-20T12:08:18.819Z,26.32
2019-04-20T12:09:19.089Z,26.92
2019-04-20T12:10:22.324Z,26.82
2019-04-20T12:11:31.283Z,27.03
2019-04-20T12:12:30.650Z,26.22
2019-04-20T12:13:20.555Z,26.42
2019-04-20T12:14:18.899Z,26.12
2019-04-20T12:15:18.867Z,27.22
2019-04-20T12:16:19.385Z,26.82
2019-04-20T12:17:19.640Z,26.51
2019-04-20T12:18:19.822Z,26.31
2019-04-20T12:19:18.735Z,25.51
2019-04-20T12:20:18.701Z,26.72
2019-04-20T12:21:18.997Z,27.02
2019-04-20T12:22:18.695Z,27.51
2019-04-20T12:23:18.664Z,27.63
2019-04-20T12:24:18.652Z,27.62
2019-04-20T12:25:18.642Z,26.52
2019-04-20T12:26:18.683Z,26.92
2019-04-20T12:27:18.695Z,27.51
2019-04-20T12:28:19.764Z,26.82
2019-04-20T12:29:19.533Z,26.52
2019-04-20T12:30:19.608Z,27.02
2019-04-20T12:31:22.611Z,27.51
2019-04-20T12:32:19.677Z,27.02
2019-04-20T12:33:18.549Z,26.63
2019-04-20T12:34:47.467Z,26.83
2019-04-20T12:35:18.527Z,27.03
2019-04-20T12:36:18.514Z,27.63
2019-04-20T12:37:18.796Z,27.63
2019-04-20T12:38:19.116Z,27.03
2019-04-20T12:39:19.293Z,25.73
2019-04-20T12:40:19.800Z,25.73
2019-04-20T12:42:28.733Z,28.53
2019-04-20T12:43:27.847Z,28.52
2019-04-20T12:44:28.066Z,27.80
2019-04-20T12:45:27.771Z,27.00
2019-04-20T12:46:28.105Z,26.32
2019-04-20T12:47:27.915Z,26.72
2019-04-20T12:49:37.859Z,27.22
2019-04-20T12:50:37.470Z,26.82
2019-04-20T12:51:47.059Z,27.40
2019-04-20T12:52:38.694Z,26.42
2019-04-20T12:53:38.328Z,26.82
2019-04-20T12:56:12.747Z,26.42
2019-04-20T12:56:46.628Z,28.22
2019-04-20T12:57:46.994Z,28.22
2019-04-20T12:58:47.398Z,26.82
2019-04-20T12:59:48.727Z,27.60
2019-04-20T13:00:46.490Z,26.92
2019-04-20T13:01:47.130Z,26.40
2019-04-20T13:02:47.363Z,27.12
2019-04-20T13:03:47.591Z,27.32
2019-04-20T13:04:46.439Z,26.82
2019-04-20T13:05:47.733Z,26.42
2019-04-20T13:06:46.986Z,26.52
2019-04-20T13:07:51.783Z,26.52
2019-04-20T13:08:52.318Z,26.82
2019-04-20T13:09:48.588Z,26.32
2019-04-20T13:10:46.603Z,26.82
2019-04-20T13:11:55.530Z,27.51
2019-04-20T13:12:47.376Z,28.11
2019-04-20T13:13:46.336Z,28.50
2019-04-20T13:14:46.530Z,26.51
2019-04-20T13:15:46.642Z,27.40
2019-04-20T13:16:49.059Z,27.40
2019-04-20T13:17:49.271Z,25.61